sensor_id;sensor_type;location;lat;lon;timestamp;pressure;altitude;pressure_sealevel;temperature;humidity
64862;BME280;62652;42.274;-71.436;2022-10-16T00:00:00;100790.0;;;16.0;78.3
64862;BME280;62652;42.274;-71.436;2022-10-16T00:01:05;100790.0;;;16.0;75.9
64862;BME280;62652;42.274;-71.436;2022-10-16T00:02:00;100790.0;;;16.22222222222222;75.8
64862;BME280;62652;42.274;-71.436;2022-10-16T00:03:00;100790.0;;;15.88888888888889;75.8
64862;BME280;62652;42.274;-71.436;2022-10-16T00:04:02;100790.0;;;15.88888888888889;75.7
64862;BME280;62652;42.274;-71.436;2022-10-16T00:05:00;100800.0;;;16.22222222222222;75.4
64862;BME280;62652;42.274;-71.436;2022-10-16T00:06:00;100800.0;;;16.5;74.1
64862;BME280;62652;42.274;-71.436;2022-10-16T00:07:00;100800.0;;;16.72222222222222;71.3
64862;BME280;62652;42.274;-71.436;2022-10-16T00:08:00;100800.0;;;16.88888888888889;70.6
64862;BME280;62652;42.274;-71.436;2022-10-16T00:09:01;100800.0;;;17.11111111111111;69.5
64862;BME280;62652;42.274;-71.436;2022-10-16T00:10:00;100800.0;;;17.27777777777778;68.7
64862;BME280;62652;42.274;-71.436;2022-10-16T00:11:02;100800.0;;;17.38888888888889;67.9
64862;BME280;62652;42.274;-71.436;2022-10-16T00:12:00;100800.0;;;17.5;67.8
64862;BME280;62652;42.274;-71.436;2022-10-16T00:13:01;100800.0;;;17.5;68.0
64862;BME280;62652;42.274;-71.436;2022-10-16T00:14:02;100800.0;;;17.61111111111111;67.3
64862;BME280;62652;42.274;-71.436;2022-10-16T00:15:00;100800.0;;;17.72222222222222;66.7
64862;BME280;62652;42.274;-71.436;2022-10-16T00:16:01;100800.0;;;17.77777777777778;66.1
64862;BME280;62652;42.274;-71.436;2022-10-16T00:17:00;100790.0;;;17.77777777777778;65.8
64862;BME280;62652;42.274;-71.436;2022-10-16T00:18:00;100790.0;;;17.72222222222222;66.2
64862;BME280;62652;42.274;-71.436;2022-10-16T00:19:00;100790.0;;;17.5;67.4
64862;BME280;62652;42.274;-71.436;2022-10-16T00:20:01;100800.0;;;17.27777777777778;67.8
64862;BME280;62652;42.274;-71.436;2022-10-16T00:21:02;100790.0;;;17.11111111111111;67.5
64862;BME280;62652;42.274;-71.436;2022-10-16T00:22:00;100800.0;;;16.61111111111111;70.2
64862;BME280;62652;42.274;-71.436;2022-10-16T00:23:00;100800.0;;;16.72222222222222;70.0
64862;BME280;62652;42.274;-71.436;2022-10-16T00:24:02;100800.0;;;16.77777777777778;69.7
64862;BME280;62652;42.274;-71.436;2022-10-16T00:25:00;100790.0;;;16.88888888888889;69.4
64862;BME280;62652;42.274;-71.436;2022-10-16T00:26:03;100790.0;;;17.0;69.1
64862;BME280;62652;42.274;-71.436;2022-10-16T00:27:00;100800.0;;;16.88888888888889;69.4
64862;BME280;62652;42.274;-71.436;2022-10-16T00:28:00;100800.0;;;16.88888888888889;70.0
64862;BME280;62652;42.274;-71.436;2022-10-16T00:29:00;100800.0;;;16.88888888888889;69.5
64862;BME280;62652;42.274;-71.436;2022-10-16T00:30:00;100790.0;;;16.38888888888889;71.4
64862;BME280;62652;42.274;-71.436;2022-10-16T00:31:03;100800.0;;;16.22222222222222;72.4
64862;BME280;62652;42.274;-71.436;2022-10-16T00:32:00;100800.0;;;16.5;71.8
64862;BME280;62652;42.274;-71.436;2022-10-16T00:33:00;100800.0;;;16.61111111111111;72.1
64862;BME280;62652;42.274;-71.436;2022-10-16T00:34:00;100800.0;;;16.61111111111111;71.3
64862;BME280;62652;42.274;-71.436;2022-10-16T00:35:00;100800.0;;;16.61111111111111;70.8
64862;BME280;62652;42.274;-71.436;2022-10-16T00:36:00;100800.0;;;16.5;71.3
64862;BME280;62652;42.274;-71.436;2022-10-16T00:37:01;100800.0;;;16.0;72.5
64862;BME280;62652;42.274;-71.436;2022-10-16T00:38:00;100810.0;;;15.88888888888889;73.3
64862;BME280;62652;42.274;-71.436;2022-10-16T00:39:02;100800.0;;;15.61111111111111;75.4
64862;BME280;62652;42.274;-71.436;2022-10-16T00:40:00;100810.0;;;15.38888888888889;76.9
64862;BME280;62652;42.274;-71.436;2022-10-16T00:41:01;100800.0;;;15.61111111111111;76.2
64862;BME280;62652;42.274;-71.436;2022-10-16T00:42:01;100800.0;;;15.722222222222221;75.0
64862;BME280;62652;42.274;-71.436;2022-10-16T00:43:00;100800.0;;;15.61111111111111;76.2
64862;BME280;62652;42.274;-71.436;2022-10-16T00:44:03;100800.0;;;15.222222222222221;77.9
64862;BME280;62652;42.274;-71.436;2022-10-16T00:45:00;100800.0;;;14.88888888888889;80.4
64862;BME280;62652;42.274;-71.436;2022-10-16T00:46:02;100810.0;;;14.61111111111111;82.9
64862;BME280;62652;42.274;-71.436;2022-10-16T00:47:00;100810.0;;;14.61111111111111;83.7
64862;BME280;62652;42.274;-71.436;2022-10-16T00:48:00;100800.0;;;14.38888888888889;85.2
64862;BME280;62652;42.274;-71.436;2022-10-16T00:49:03;100800.0;;;14.277777777777779;86.0
64862;BME280;62652;42.274;-71.436;2022-10-16T00:50:04;100810.0;;;14.11111111111111;87.1
64862;BME280;62652;42.274;-71.436;2022-10-16T00:51:00;100800.0;;;14.000000000000002;87.9
64862;BME280;62652;42.274;-71.436;2022-10-16T00:52:00;100810.0;;;14.000000000000002;88.2
64862;BME280;62652;42.274;-71.436;2022-10-16T00:53:01;100810.0;;;14.000000000000002;88.3
64862;BME280;62652;42.274;-71.436;2022-10-16T00:54:02;100800.0;;;13.88888888888889;88.0
64862;BME280;62652;42.274;-71.436;2022-10-16T00:55:02;100810.0;;;14.222222222222221;86.4
64862;BME280;62652;42.274;-71.436;2022-10-16T00:56:01;100810.0;;;14.61111111111111;86.1
64862;BME280;62652;42.274;-71.436;2022-10-16T00:57:03;100800.0;;;15.0;83.3
64862;BME280;62652;42.274;-71.436;2022-10-16T00:58:00;100800.0;;;15.11111111111111;82.8
64862;BME280;62652;42.274;-71.436;2022-10-16T00:59:04;100810.0;;;15.277777777777779;81.5
64862;BME280;62652;42.274;-71.436;2022-10-16T01:00:02;100800.0;;;15.5;79.6
64862;BME280;62652;42.274;-71.436;2022-10-16T01:01:00;100800.0;;;15.38888888888889;79.7
64862;BME280;62652;42.274;-71.436;2022-10-16T01:02:02;100800.0;;;15.5;79.2
64862;BME280;62652;42.274;-71.436;2022-10-16T01:03:02;100810.0;;;15.88888888888889;76.7
64862;BME280;62652;42.274;-71.436;2022-10-16T01:04:00;100810.0;;;15.722222222222221;77.6
64862;BME280;62652;42.274;-71.436;2022-10-16T01:05:01;100810.0;;;15.88888888888889;76.6
64862;BME280;62652;42.274;-71.436;2022-10-16T01:06:13;100810.0;;;15.61111111111111;76.8
64862;BME280;62652;42.274;-71.436;2022-10-16T01:07:06;100810.0;;;15.222222222222221;78.5
64862;BME280;62652;42.274;-71.436;2022-10-16T01:08:04;100810.0;;;15.11111111111111;79.5
64862;BME280;62652;42.274;-71.436;2022-10-16T01:09:06;100810.0;;;15.0;78.8
64862;BME280;62652;42.274;-71.436;2022-10-16T01:10:07;100810.0;;;15.222222222222221;78.6
64862;BME280;62652;42.274;-71.436;2022-10-16T01:11:07;100810.0;;;15.277777777777779;78.2
64862;BME280;62652;42.274;-71.436;2022-10-16T01:12:06;100810.0;;;15.61111111111111;78.1
64862;BME280;62652;42.274;-71.436;2022-10-16T01:13:03;100800.0;;;15.722222222222221;75.5
64862;BME280;62652;42.274;-71.436;2022-10-16T01:14:06;100810.0;;;15.38888888888889;77.4
64862;BME280;62652;42.274;-71.436;2022-10-16T01:15:08;100810.0;;;15.222222222222221;78.2
64862;BME280;62652;42.274;-71.436;2022-10-16T01:16:04;100810.0;;;14.88888888888889;78.7
64862;BME280;62652;42.274;-71.436;2022-10-16T01:17:04;100810.0;;;14.88888888888889;79.1
64862;BME280;62652;42.274;-71.436;2022-10-16T01:18:06;100810.0;;;14.722222222222221;80.0
64862;BME280;62652;42.274;-71.436;2022-10-16T01:19:07;100810.0;;;14.61111111111111;81.2
64862;BME280;62652;42.274;-71.436;2022-10-16T01:20:08;100810.0;;;14.722222222222221;80.3
64862;BME280;62652;42.274;-71.436;2022-10-16T01:21:04;100820.0;;;14.222222222222221;82.4
64862;BME280;62652;42.274;-71.436;2022-10-16T01:22:01;100820.0;;;13.88888888888889;85.4
64862;BME280;62652;42.274;-71.436;2022-10-16T01:23:14;100820.0;;;13.38888888888889;88.3
64862;BME280;62652;42.274;-71.436;2022-10-16T01:24:06;100820.0;;;13.277777777777779;89.9
64862;BME280;62652;42.274;-71.436;2022-10-16T01:25:02;100820.0;;;13.277777777777779;91.2
64862;BME280;62652;42.274;-71.436;2022-10-16T01:26:14;100820.0;;;13.11111111111111;91.6
64862;BME280;62652;42.274;-71.436;2022-10-16T01:27:04;100820.0;;;12.888888888888891;92.5
64862;BME280;62652;42.274;-71.436;2022-10-16T01:28:02;100820.0;;;13.0;91.6
64862;BME280;62652;42.274;-71.436;2022-10-16T01:29:03;100820.0;;;13.11111111111111;91.5
64862;BME280;62652;42.274;-71.436;2022-10-16T01:30:05;100820.0;;;13.222222222222221;91.4
64862;BME280;62652;42.274;-71.436;2022-10-16T01:31:01;100830.0;;;13.222222222222221;91.1
64862;BME280;62652;42.274;-71.436;2022-10-16T01:32:05;100830.0;;;13.11111111111111;91.0
64862;BME280;62652;42.274;-71.436;2022-10-16T01:33:04;100820.0;;;13.0;92.2
64862;BME280;62652;42.274;-71.436;2022-10-16T01:34:03;100830.0;;;13.0;92.4
64862;BME280;62652;42.274;-71.436;2022-10-16T01:35:04;100830.0;;;13.11111111111111;92.3
64862;BME280;62652;42.274;-71.436;2022-10-16T01:36:05;100830.0;;;13.222222222222221;91.4
64862;BME280;62652;42.274;-71.436;2022-10-16T01:37:05;100840.0;;;13.277777777777779;90.6
64862;BME280;62652;42.274;-71.436;2022-10-16T01:38:03;100830.0;;;13.38888888888889;90.1
64862;BME280;62652;42.274;-71.436;2022-10-16T01:39:01;100840.0;;;13.277777777777779;90.1
64862;BME280;62652;42.274;-71.436;2022-10-16T01:40:05;100830.0;;;13.11111111111111;90.0
64862;BME280;62652;42.274;-71.436;2022-10-16T01:41:03;100840.0;;;13.277777777777779;89.0
64862;BME280;62652;42.274;-71.436;2022-10-16T01:42:04;100840.0;;;13.11111111111111;90.2
64862;BME280;62652;42.274;-71.436;2022-10-16T01:43:05;100840.0;;;13.222222222222221;89.6
64862;BME280;62652;42.274;-71.436;2022-10-16T01:44:04;100840.0;;;13.277777777777779;89.2
64862;BME280;62652;42.274;-71.436;2022-10-16T01:45:01;100840.0;;;13.222222222222221;89.6
64862;BME280;62652;42.274;-71.436;2022-10-16T01:46:01;100840.0;;;13.499999999999998;88.9
64862;BME280;62652;42.274;-71.436;2022-10-16T01:47:01;100850.0;;;13.88888888888889;86.1
64862;BME280;62652;42.274;-71.436;2022-10-16T01:48:02;100850.0;;;14.000000000000002;85.7
64862;BME280;62652;42.274;-71.436;2022-10-16T01:49:02;100850.0;;;13.88888888888889;86.2
64862;BME280;62652;42.274;-71.436;2022-10-16T01:50:02;100850.0;;;14.277777777777779;84.6
64862;BME280;62652;42.274;-71.436;2022-10-16T01:51:03;100840.0;;;14.277777777777779;84.2
64862;BME280;62652;42.274;-71.436;2022-10-16T01:52:05;100840.0;;;14.38888888888889;83.7
64862;BME280;62652;42.274;-71.436;2022-10-16T01:53:02;100840.0;;;14.61111111111111;82.4
64862;BME280;62652;42.274;-71.436;2022-10-16T01:54:01;100840.0;;;14.38888888888889;83.4
64862;BME280;62652;42.274;-71.436;2022-10-16T01:55:03;100850.0;;;14.277777777777779;84.2
64862;BME280;62652;42.274;-71.436;2022-10-16T01:56:03;100850.0;;;14.000000000000002;85.2
64862;BME280;62652;42.274;-71.436;2022-10-16T01:57:01;100850.0;;;13.61111111111111;87.1
64862;BME280;62652;42.274;-71.436;2022-10-16T01:58:02;100850.0;;;13.499999999999998;88.9
64862;BME280;62652;42.274;-71.436;2022-10-16T01:59:04;100850.0;;;13.11111111111111;90.7
64862;BME280;62652;42.274;-71.436;2022-10-16T02:00:04;100850.0;;;13.38888888888889;90.1
64862;BME280;62652;42.274;-71.436;2022-10-16T02:01:01;100850.0;;;13.222222222222221;90.7
64862;BME280;62652;42.274;-71.436;2022-10-16T02:02:06;100850.0;;;13.222222222222221;90.3
64862;BME280;62652;42.274;-71.436;2022-10-16T02:03:01;100850.0;;;13.222222222222221;91.4
64862;BME280;62652;42.274;-71.436;2022-10-16T02:04:11;100850.0;;;13.222222222222221;90.9
64862;BME280;62652;42.274;-71.436;2022-10-16T02:05:05;100850.0;;;13.222222222222221;90.6
64862;BME280;62652;42.274;-71.436;2022-10-16T02:06:00;100860.0;;;13.277777777777779;90.7
64862;BME280;62652;42.274;-71.436;2022-10-16T02:07:01;100860.0;;;13.277777777777779;90.4
64862;BME280;62652;42.274;-71.436;2022-10-16T02:08:00;100860.0;;;13.222222222222221;91.0
64862;BME280;62652;42.274;-71.436;2022-10-16T02:09:00;100860.0;;;13.11111111111111;91.8
64862;BME280;62652;42.274;-71.436;2022-10-16T02:10:01;100860.0;;;12.777777777777779;93.3
64862;BME280;62652;42.274;-71.436;2022-10-16T02:11:01;100860.0;;;12.777777777777779;93.7
64862;BME280;62652;42.274;-71.436;2022-10-16T02:12:05;100860.0;;;12.888888888888891;93.1
64862;BME280;62652;42.274;-71.436;2022-10-16T02:13:05;100860.0;;;12.722222222222221;93.5
64862;BME280;62652;42.274;-71.436;2022-10-16T02:14:04;100860.0;;;12.777777777777779;93.2
64862;BME280;62652;42.274;-71.436;2022-10-16T02:15:00;100860.0;;;13.11111111111111;93.0
64862;BME280;62652;42.274;-71.436;2022-10-16T02:16:01;100860.0;;;13.222222222222221;91.8
64862;BME280;62652;42.274;-71.436;2022-10-16T02:17:00;100860.0;;;13.38888888888889;90.8
64862;BME280;62652;42.274;-71.436;2022-10-16T02:18:01;100860.0;;;13.61111111111111;90.0
64862;BME280;62652;42.274;-71.436;2022-10-16T02:19:01;100860.0;;;13.277777777777779;90.6
64862;BME280;62652;42.274;-71.436;2022-10-16T02:20:01;100860.0;;;13.61111111111111;89.3
64862;BME280;62652;42.274;-71.436;2022-10-16T02:21:05;100860.0;;;13.277777777777779;89.6
64862;BME280;62652;42.274;-71.436;2022-10-16T02:22:03;100860.0;;;12.722222222222221;92.0
64862;BME280;62652;42.274;-71.436;2022-10-16T02:23:01;100860.0;;;12.5;93.6
64862;BME280;62652;42.274;-71.436;2022-10-16T02:24:04;100860.0;;;12.277777777777779;95.0
64862;BME280;62652;42.274;-71.436;2022-10-16T02:25:04;100860.0;;;12.111111111111109;95.8
64862;BME280;62652;42.274;-71.436;2022-10-16T02:26:03;100860.0;;;12.0;96.7
64862;BME280;62652;42.274;-71.436;2022-10-16T02:27:06;100860.0;;;12.0;97.2
64862;BME280;62652;42.274;-71.436;2022-10-16T02:28:03;100860.0;;;12.0;97.3
64862;BME280;62652;42.274;-71.436;2022-10-16T02:29:03;100860.0;;;11.88888888888889;97.4
64862;BME280;62652;42.274;-71.436;2022-10-16T02:30:05;100860.0;;;11.88888888888889;97.7
64862;BME280;62652;42.274;-71.436;2022-10-16T02:31:03;100860.0;;;12.111111111111109;96.7
64862;BME280;62652;42.274;-71.436;2022-10-16T02:32:02;100870.0;;;12.111111111111109;96.6
64862;BME280;62652;42.274;-71.436;2022-10-16T02:33:02;100860.0;;;12.111111111111109;96.6
64862;BME280;62652;42.274;-71.436;2022-10-16T02:34:03;100870.0;;;12.222222222222221;96.3
64862;BME280;62652;42.274;-71.436;2022-10-16T02:35:01;100860.0;;;12.388888888888888;95.4
64862;BME280;62652;42.274;-71.436;2022-10-16T02:36:01;100870.0;;;12.388888888888888;95.0
64862;BME280;62652;42.274;-71.436;2022-10-16T02:37:04;100870.0;;;12.277777777777779;95.3
64862;BME280;62652;42.274;-71.436;2022-10-16T02:38:01;100860.0;;;12.5;95.2
64862;BME280;62652;42.274;-71.436;2022-10-16T02:39:02;100860.0;;;12.611111111111112;94.9
64862;BME280;62652;42.274;-71.436;2022-10-16T02:40:01;100860.0;;;12.5;94.6
64862;BME280;62652;42.274;-71.436;2022-10-16T02:41:00;100860.0;;;12.777777777777779;93.5
64862;BME280;62652;42.274;-71.436;2022-10-16T02:42:01;100870.0;;;12.5;94.2
64862;BME280;62652;42.274;-71.436;2022-10-16T02:43:04;100860.0;;;12.5;94.5
64862;BME280;62652;42.274;-71.436;2022-10-16T02:44:00;100860.0;;;12.111111111111109;96.3
64862;BME280;62652;42.274;-71.436;2022-10-16T02:45:00;100860.0;;;12.0;97.1
64862;BME280;62652;42.274;-71.436;2022-10-16T02:46:00;100860.0;;;12.222222222222221;96.8
64862;BME280;62652;42.274;-71.436;2022-10-16T02:47:00;100860.0;;;11.88888888888889;97.3
64862;BME280;62652;42.274;-71.436;2022-10-16T02:48:00;100860.0;;;11.88888888888889;97.9
64862;BME280;62652;42.274;-71.436;2022-10-16T02:49:00;100860.0;;;11.722222222222221;98.7
64862;BME280;62652;42.274;-71.436;2022-10-16T02:50:01;100860.0;;;11.777777777777779;98.7
64862;BME280;62652;42.274;-71.436;2022-10-16T02:51:00;100860.0;;;11.722222222222221;98.7
64862;BME280;62652;42.274;-71.436;2022-10-16T02:52:00;100860.0;;;11.500000000000002;100.0
64862;BME280;62652;42.274;-71.436;2022-10-16T02:53:01;100860.0;;;11.722222222222221;100.0
64862;BME280;62652;42.274;-71.436;2022-10-16T02:54:01;100860.0;;;11.722222222222221;99.4
64862;BME280;62652;42.274;-71.436;2022-10-16T02:55:00;100860.0;;;11.777777777777779;99.3
64862;BME280;62652;42.274;-71.436;2022-10-16T02:56:00;100860.0;;;12.0;98.6
64862;BME280;62652;42.274;-71.436;2022-10-16T02:57:00;100860.0;;;12.611111111111112;96.0
64862;BME280;62652;42.274;-71.436;2022-10-16T02:58:00;100860.0;;;13.11111111111111;93.5
64862;BME280;62652;42.274;-71.436;2022-10-16T02:59:00;100860.0;;;13.38888888888889;91.7
64862;BME280;62652;42.274;-71.436;2022-10-16T03:00:00;100860.0;;;13.722222222222223;90.2
64862;BME280;62652;42.274;-71.436;2022-10-16T03:01:00;100860.0;;;14.000000000000002;88.2
64862;BME280;62652;42.274;-71.436;2022-10-16T03:02:00;100860.0;;;13.88888888888889;87.9
64862;BME280;62652;42.274;-71.436;2022-10-16T03:03:00;100860.0;;;13.499999999999998;89.2
64862;BME280;62652;42.274;-71.436;2022-10-16T03:04:00;100860.0;;;12.777777777777779;92.1
64862;BME280;62652;42.274;-71.436;2022-10-16T03:05:00;100850.0;;;12.222222222222221;95.1
64862;BME280;62652;42.274;-71.436;2022-10-16T03:06:00;100850.0;;;12.111111111111109;95.7
64862;BME280;62652;42.274;-71.436;2022-10-16T03:07:01;100850.0;;;11.722222222222221;98.2
64862;BME280;62652;42.274;-71.436;2022-10-16T03:08:00;100850.0;;;11.722222222222221;98.3
64862;BME280;62652;42.274;-71.436;2022-10-16T03:09:00;100850.0;;;11.777777777777779;98.7
64862;BME280;62652;42.274;-71.436;2022-10-16T03:10:00;100850.0;;;11.61111111111111;99.3
64862;BME280;62652;42.274;-71.436;2022-10-16T03:11:01;100850.0;;;11.61111111111111;99.1
64862;BME280;62652;42.274;-71.436;2022-10-16T03:12:00;100850.0;;;11.61111111111111;99.1
64862;BME280;62652;42.274;-71.436;2022-10-16T03:13:00;100850.0;;;11.722222222222221;98.9
64862;BME280;62652;42.274;-71.436;2022-10-16T03:14:00;100850.0;;;11.38888888888889;99.9
64862;BME280;62652;42.274;-71.436;2022-10-16T03:15:00;100850.0;;;11.61111111111111;99.3
64862;BME280;62652;42.274;-71.436;2022-10-16T03:16:00;100850.0;;;11.777777777777779;98.5
64862;BME280;62652;42.274;-71.436;2022-10-16T03:17:00;100850.0;;;11.722222222222221;98.9
64862;BME280;62652;42.274;-71.436;2022-10-16T03:18:00;100850.0;;;11.777777777777779;98.5
64862;BME280;62652;42.274;-71.436;2022-10-16T03:19:01;100850.0;;;11.88888888888889;98.0
64862;BME280;62652;42.274;-71.436;2022-10-16T03:20:00;100850.0;;;12.0;97.4
64862;BME280;62652;42.274;-71.436;2022-10-16T03:21:00;100850.0;;;12.111111111111109;97.2
64862;BME280;62652;42.274;-71.436;2022-10-16T03:22:01;100850.0;;;11.88888888888889;97.6
64862;BME280;62652;42.274;-71.436;2022-10-16T03:23:00;100850.0;;;11.777777777777779;98.1
64862;BME280;62652;42.274;-71.436;2022-10-16T03:24:00;100850.0;;;11.61111111111111;98.8
64862;BME280;62652;42.274;-71.436;2022-10-16T03:25:00;100850.0;;;11.61111111111111;99.2
64862;BME280;62652;42.274;-71.436;2022-10-16T03:26:00;100850.0;;;11.777777777777779;98.8
64862;BME280;62652;42.274;-71.436;2022-10-16T03:27:00;100840.0;;;11.777777777777779;98.9
64862;BME280;62652;42.274;-71.436;2022-10-16T03:28:00;100850.0;;;11.777777777777779;98.4
64862;BME280;62652;42.274;-71.436;2022-10-16T03:29:00;100850.0;;;12.0;97.9
64862;BME280;62652;42.274;-71.436;2022-10-16T03:30:00;100850.0;;;12.222222222222221;96.9
64862;BME280;62652;42.274;-71.436;2022-10-16T03:31:00;100840.0;;;12.611111111111112;94.7
64862;BME280;62652;42.274;-71.436;2022-10-16T03:32:01;100840.0;;;12.611111111111112;94.8
64862;BME280;62652;42.274;-71.436;2022-10-16T03:33:00;100840.0;;;12.777777777777779;93.7
64862;BME280;62652;42.274;-71.436;2022-10-16T03:34:00;100840.0;;;12.722222222222221;93.8
64862;BME280;62652;42.274;-71.436;2022-10-16T03:35:00;100840.0;;;12.611111111111112;94.6
64862;BME280;62652;42.274;-71.436;2022-10-16T03:36:00;100840.0;;;12.888888888888891;93.1
64862;BME280;62652;42.274;-71.436;2022-10-16T03:37:00;100840.0;;;12.777777777777779;93.3
64862;BME280;62652;42.274;-71.436;2022-10-16T03:38:00;100840.0;;;12.777777777777779;93.0
64862;BME280;62652;42.274;-71.436;2022-10-16T03:39:00;100840.0;;;12.888888888888891;93.1
64862;BME280;62652;42.274;-71.436;2022-10-16T03:40:00;100840.0;;;13.11111111111111;92.2
64862;BME280;62652;42.274;-71.436;2022-10-16T03:41:00;100840.0;;;13.222222222222221;91.4
64862;BME280;62652;42.274;-71.436;2022-10-16T03:42:00;100830.0;;;13.277777777777779;90.8
64862;BME280;62652;42.274;-71.436;2022-10-16T03:43:00;100840.0;;;13.61111111111111;89.5
64862;BME280;62652;42.274;-71.436;2022-10-16T03:44:00;100830.0;;;13.499999999999998;89.6
64862;BME280;62652;42.274;-71.436;2022-10-16T03:45:00;100830.0;;;13.777777777777777;88.5
64862;BME280;62652;42.274;-71.436;2022-10-16T03:46:00;100830.0;;;13.277777777777779;89.5
64862;BME280;62652;42.274;-71.436;2022-10-16T03:47:00;100830.0;;;13.277777777777779;90.0
64862;BME280;62652;42.274;-71.436;2022-10-16T03:48:00;100830.0;;;13.499999999999998;89.6
64862;BME280;62652;42.274;-71.436;2022-10-16T03:49:00;100840.0;;;13.777777777777777;88.1
64862;BME280;62652;42.274;-71.436;2022-10-16T03:50:00;100840.0;;;14.11111111111111;87.0
64862;BME280;62652;42.274;-71.436;2022-10-16T03:51:00;100840.0;;;14.000000000000002;86.7
64862;BME280;62652;42.274;-71.436;2022-10-16T03:52:00;100840.0;;;14.222222222222221;86.1
64862;BME280;62652;42.274;-71.436;2022-10-16T03:53:00;100850.0;;;13.88888888888889;86.3
64862;BME280;62652;42.274;-71.436;2022-10-16T03:54:00;100850.0;;;14.000000000000002;86.3
64862;BME280;62652;42.274;-71.436;2022-10-16T03:55:00;100840.0;;;13.777777777777777;86.1
64862;BME280;62652;42.274;-71.436;2022-10-16T03:56:00;100850.0;;;14.11111111111111;85.5
64862;BME280;62652;42.274;-71.436;2022-10-16T03:57:00;100850.0;;;14.277777777777779;84.8
64862;BME280;62652;42.274;-71.436;2022-10-16T03:58:00;100850.0;;;14.277777777777779;84.7
64862;BME280;62652;42.274;-71.436;2022-10-16T03:59:00;100840.0;;;14.5;83.9
64862;BME280;62652;42.274;-71.436;2022-10-16T04:00:00;100840.0;;;14.61111111111111;83.3
64862;BME280;62652;42.274;-71.436;2022-10-16T04:01:00;100840.0;;;14.61111111111111;83.5
64862;BME280;62652;42.274;-71.436;2022-10-16T04:02:00;100840.0;;;14.5;83.4
64862;BME280;62652;42.274;-71.436;2022-10-16T04:03:01;100850.0;;;14.277777777777779;84.3
64862;BME280;62652;42.274;-71.436;2022-10-16T04:04:00;100840.0;;;14.277777777777779;84.4
64862;BME280;62652;42.274;-71.436;2022-10-16T04:05:00;100850.0;;;14.222222222222221;84.6
64862;BME280;62652;42.274;-71.436;2022-10-16T04:06:00;100840.0;;;14.222222222222221;84.6
64862;BME280;62652;42.274;-71.436;2022-10-16T04:07:00;100840.0;;;14.000000000000002;85.1
64862;BME280;62652;42.274;-71.436;2022-10-16T04:08:00;100840.0;;;13.722222222222223;86.5
64862;BME280;62652;42.274;-71.436;2022-10-16T04:09:00;100840.0;;;13.499999999999998;87.3
64862;BME280;62652;42.274;-71.436;2022-10-16T04:10:00;100840.0;;;13.222222222222221;88.3
64862;BME280;62652;42.274;-71.436;2022-10-16T04:11:00;100840.0;;;13.222222222222221;88.8
64862;BME280;62652;42.274;-71.436;2022-10-16T04:12:00;100830.0;;;13.0;90.1
64862;BME280;62652;42.274;-71.436;2022-10-16T04:13:00;100830.0;;;13.11111111111111;89.9
64862;BME280;62652;42.274;-71.436;2022-10-16T04:14:00;100830.0;;;13.11111111111111;89.5
64862;BME280;62652;42.274;-71.436;2022-10-16T04:15:00;100830.0;;;13.11111111111111;90.3
64862;BME280;62652;42.274;-71.436;2022-10-16T04:16:00;100830.0;;;13.277777777777779;88.9
64862;BME280;62652;42.274;-71.436;2022-10-16T04:17:01;100830.0;;;13.277777777777779;89.4
64862;BME280;62652;42.274;-71.436;2022-10-16T04:18:00;100830.0;;;13.38888888888889;88.7
64862;BME280;62652;42.274;-71.436;2022-10-16T04:19:00;100830.0;;;13.777777777777777;87.6
64862;BME280;62652;42.274;-71.436;2022-10-16T04:20:00;100830.0;;;13.88888888888889;86.7
64862;BME280;62652;42.274;-71.436;2022-10-16T04:21:03;100840.0;;;14.11111111111111;85.9
64862;BME280;62652;42.274;-71.436;2022-10-16T04:22:00;100830.0;;;14.000000000000002;85.9
64862;BME280;62652;42.274;-71.436;2022-10-16T04:23:00;100830.0;;;13.722222222222223;86.9
64862;BME280;62652;42.274;-71.436;2022-10-16T04:24:00;100830.0;;;13.777777777777777;87.0
64862;BME280;62652;42.274;-71.436;2022-10-16T04:25:00;100840.0;;;14.000000000000002;86.7
64862;BME280;62652;42.274;-71.436;2022-10-16T04:26:00;100840.0;;;14.11111111111111;85.6
64862;BME280;62652;42.274;-71.436;2022-10-16T04:27:00;100830.0;;;14.222222222222221;85.1
64862;BME280;62652;42.274;-71.436;2022-10-16T04:28:01;100840.0;;;14.277777777777779;84.5
64862;BME280;62652;42.274;-71.436;2022-10-16T04:29:00;100840.0;;;14.222222222222221;84.6
64862;BME280;62652;42.274;-71.436;2022-10-16T04:30:01;100830.0;;;14.277777777777779;84.2
64862;BME280;62652;42.274;-71.436;2022-10-16T04:31:03;100840.0;;;14.277777777777779;83.9
64862;BME280;62652;42.274;-71.436;2022-10-16T04:32:00;100830.0;;;14.277777777777779;84.4
64862;BME280;62652;42.274;-71.436;2022-10-16T04:33:00;100840.0;;;14.277777777777779;83.9